BOX915 EDDF-EDDP
Flight info
| Callsign | BOX915 |
|---|---|
| Flight time | 0h 42m |
| Altitude | 23000 |
| Route | SULUS4D SULUS Z12 LASGA/N0437F220 T953 VOCIM/N0431F210 T954 GOXLI GOXLI1V |
| Aircraft | B77L/H-SDE1E2E3FGHIJ2J3J4J5M1RWXY/LB1D1 |
Departure
| Time | 2026-05-05 02:49 |
|---|---|
| Airport | Frankfurt Main Airport (EDDF) |
Arrival
| Time | 2026-05-05 03:31 |
|---|---|
| Airport | Leipzig/Halle Airport (EDDP) |
| Time | Latitude | Longitude | Altitude | Speed | Heading |
|---|---|---|---|---|---|
| 2026-05-05 02:26 | 50.04057 | 8.54770 | 354 ft | 0 kts | 69° |
| 2026-05-05 02:38 | 50.04051 | 8.54746 | 364 ft | 4 kts | 69° |
| 2026-05-05 02:39 | 50.04043 | 8.54710 | 363 ft | 2 kts | 69° |
| 2026-05-05 02:39 | 50.04037 | 8.54678 | 363 ft | 4 kts | 99° |
| 2026-05-05 02:39 | 50.04043 | 8.54655 | 363 ft | 4 kts | 146° |
| 2026-05-05 02:39 | 50.04066 | 8.54639 | 363 ft | 4 kts | 161° |
| 2026-05-05 02:40 | 50.04072 | 8.54636 | 362 ft | 0 kts | 160° |
| 2026-05-05 02:45 | 50.04069 | 8.54637 | 362 ft | 6 kts | 160° |
| 2026-05-05 02:45 | 50.03969 | 8.54664 | 360 ft | 17 kts | 195° |
| 2026-05-05 02:45 | 50.03901 | 8.54521 | 358 ft | 17 kts | 249° |
| 2026-05-05 02:45 | 50.03852 | 8.54351 | 359 ft | 17 kts | 240° |
| 2026-05-05 02:46 | 50.03794 | 8.54189 | 357 ft | 17 kts | 243° |
| 2026-05-05 02:46 | 50.03744 | 8.54021 | 355 ft | 17 kts | 251° |
| 2026-05-05 02:46 | 50.03706 | 8.53844 | 352 ft | 17 kts | 251° |
| 2026-05-05 02:46 | 50.03667 | 8.53672 | 352 ft | 17 kts | 250° |
| 2026-05-05 02:47 | 50.03625 | 8.53497 | 350 ft | 17 kts | 244° |
| 2026-05-05 02:47 | 50.03539 | 8.53371 | 351 ft | 17 kts | 211° |
| 2026-05-05 02:47 | 50.03430 | 8.53310 | 346 ft | 16 kts | 179° |
| 2026-05-05 02:47 | 50.03332 | 8.53391 | 337 ft | 16 kts | 133° |
| 2026-05-05 02:48 | 50.03287 | 8.53540 | 348 ft | 15 kts | 85° |
| 2026-05-05 02:48 | 50.03337 | 8.53773 | 352 ft | 52 kts | 70° |
| 2026-05-05 02:48 | 50.03587 | 8.54821 | 354 ft | 154 kts | 70° |
| 2026-05-05 02:48 | 50.04055 | 8.56775 | 594 ft | 216 kts | 69° |
| 2026-05-05 02:49 | 50.04581 | 8.59064 | 1713 ft | 230 kts | 69° |
| 2026-05-05 02:49 | 50.05152 | 8.61443 | 3057 ft | 238 kts | 70° |
| 2026-05-05 02:49 | 50.05719 | 8.63927 | 3895 ft | 256 kts | 72° |
| 2026-05-05 02:49 | 50.06297 | 8.66611 | 4652 ft | 267 kts | 73° |
| 2026-05-05 02:50 | 50.06894 | 8.69402 | 5454 ft | 274 kts | 75° |
| 2026-05-05 02:50 | 50.07152 | 8.72350 | 6224 ft | 278 kts | 98° |
| 2026-05-05 02:50 | 50.06824 | 8.75311 | 6991 ft | 280 kts | 104° |
| 2026-05-05 02:50 | 50.06462 | 8.78310 | 7858 ft | 284 kts | 103° |
| 2026-05-05 02:51 | 50.06106 | 8.81363 | 8749 ft | 288 kts | 103° |
| 2026-05-05 02:51 | 50.05759 | 8.84465 | 9602 ft | 293 kts | 100° |
| 2026-05-05 02:51 | 50.05662 | 8.87681 | 10301 ft | 304 kts | 91° |
| 2026-05-05 02:51 | 50.05738 | 8.91094 | 10618 ft | 329 kts | 89° |
| 2026-05-05 02:52 | 50.05852 | 8.94810 | 10836 ft | 356 kts | 89° |
| 2026-05-05 02:52 | 50.05960 | 8.98745 | 11146 ft | 378 kts | 90° |
| 2026-05-05 02:52 | 50.06055 | 9.02895 | 11863 ft | 388 kts | 90° |
| 2026-05-05 02:52 | 50.06136 | 9.07125 | 12727 ft | 393 kts | 90° |
| 2026-05-05 02:53 | 50.06206 | 9.11394 | 13686 ft | 396 kts | 90° |
| 2026-05-05 02:53 | 50.06271 | 9.15704 | 14488 ft | 401 kts | 91° |
| 2026-05-05 02:53 | 50.06334 | 9.20070 | 15199 ft | 407 kts | 91° |
| 2026-05-05 02:53 | 50.06394 | 9.24512 | 15937 ft | 413 kts | 91° |
| 2026-05-05 02:54 | 50.06453 | 9.29010 | 16679 ft | 418 kts | 91° |
| 2026-05-05 02:54 | 50.06513 | 9.33574 | 17413 ft | 424 kts | 91° |
| 2026-05-05 02:54 | 50.06571 | 9.38198 | 18126 ft | 430 kts | 91° |
| 2026-05-05 02:54 | 50.06631 | 9.42891 | 18751 ft | 436 kts | 91° |
| 2026-05-05 02:55 | 50.06687 | 9.47564 | 19372 ft | 440 kts | 91° |
| 2026-05-05 02:55 | 50.06742 | 9.52350 | 20003 ft | 445 kts | 91° |
| 2026-05-05 02:55 | 50.06796 | 9.57190 | 20596 ft | 450 kts | 91° |
| 2026-05-05 02:55 | 50.06851 | 9.62085 | 21196 ft | 455 kts | 91° |
| 2026-05-05 02:56 | 50.06903 | 9.67037 | 21792 ft | 460 kts | 91° |
| 2026-05-05 02:56 | 50.06952 | 9.72041 | 22401 ft | 465 kts | 91° |
| 2026-05-05 02:56 | 50.06998 | 9.77117 | 22935 ft | 469 kts | 91° |
| 2026-05-05 02:56 | 50.07042 | 9.82254 | 22928 ft | 479 kts | 91° |
| 2026-05-05 02:57 | 50.07085 | 9.87452 | 22921 ft | 481 kts | 91° |
| 2026-05-05 02:57 | 50.07128 | 9.92603 | 22917 ft | 482 kts | 91° |
| 2026-05-05 02:57 | 50.07169 | 9.97817 | 22904 ft | 481 kts | 91° |
| 2026-05-05 02:57 | 50.07207 | 10.03027 | 22901 ft | 479 kts | 91° |
| 2026-05-05 02:58 | 50.07242 | 10.08214 | 22912 ft | 479 kts | 91° |
| 2026-05-05 02:58 | 50.07275 | 10.13389 | 22913 ft | 478 kts | 91° |
| 2026-05-05 02:58 | 50.07306 | 10.18572 | 22911 ft | 478 kts | 92° |
| 2026-05-05 02:58 | 50.07334 | 10.23750 | 22912 ft | 478 kts | 92° |
| 2026-05-05 02:59 | 50.07360 | 10.28925 | 22908 ft | 478 kts | 92° |
| 2026-05-05 02:59 | 50.07510 | 10.34066 | 22885 ft | 476 kts | 82° |
| 2026-05-05 02:59 | 50.08584 | 10.38948 | 22914 ft | 481 kts | 61° |
| 2026-05-05 02:59 | 50.10571 | 10.43160 | 22916 ft | 484 kts | 46° |
| 2026-05-05 03:00 | 50.13098 | 10.46507 | 22909 ft | 483 kts | 34° |
| 2026-05-05 03:00 | 50.15867 | 10.49500 | 22919 ft | 485 kts | 33° |
| 2026-05-05 03:00 | 50.18668 | 10.52460 | 22919 ft | 487 kts | 33° |
| 2026-05-05 03:00 | 50.21489 | 10.55439 | 22916 ft | 488 kts | 33° |
| 2026-05-05 03:01 | 50.24294 | 10.58429 | 22914 ft | 488 kts | 33° |
| 2026-05-05 03:01 | 50.27090 | 10.61444 | 22908 ft | 488 kts | 34° |
| 2026-05-05 03:01 | 50.29875 | 10.64478 | 22909 ft | 487 kts | 34° |
| 2026-05-05 03:01 | 50.32612 | 10.67480 | 22911 ft | 485 kts | 34° |
| 2026-05-05 03:02 | 50.35367 | 10.70515 | 22914 ft | 484 kts | 34° |
| 2026-05-05 03:02 | 50.38123 | 10.73559 | 22914 ft | 484 kts | 34° |
| 2026-05-05 03:02 | 50.40871 | 10.76599 | 22902 ft | 483 kts | 34° |
| 2026-05-05 03:02 | 50.43619 | 10.79641 | 22927 ft | 482 kts | 34° |
| 2026-05-05 03:03 | 50.46360 | 10.82677 | 22929 ft | 482 kts | 34° |
| 2026-05-05 03:03 | 50.49097 | 10.85713 | 22921 ft | 482 kts | 34° |
| 2026-05-05 03:03 | 50.51837 | 10.88756 | 22923 ft | 482 kts | 34° |
| 2026-05-05 03:03 | 50.54578 | 10.91805 | 22927 ft | 482 kts | 34° |
| 2026-05-05 03:04 | 50.57314 | 10.94853 | 22922 ft | 482 kts | 34° |
| 2026-05-05 03:04 | 50.60025 | 10.97876 | 22931 ft | 483 kts | 34° |
| 2026-05-05 03:04 | 50.62770 | 11.00942 | 22929 ft | 483 kts | 34° |
| 2026-05-05 03:04 | 50.65514 | 11.04012 | 22912 ft | 483 kts | 34° |
| 2026-05-05 03:05 | 50.68256 | 11.07083 | 22935 ft | 483 kts | 34° |
| 2026-05-05 03:05 | 50.70996 | 11.10158 | 22916 ft | 484 kts | 34° |
| 2026-05-05 03:05 | 50.73737 | 11.13238 | 22934 ft | 483 kts | 34° |
| 2026-05-05 03:05 | 50.76475 | 11.16320 | 22937 ft | 483 kts | 34° |
| 2026-05-05 03:06 | 50.79222 | 11.19416 | 22920 ft | 484 kts | 34° |
| 2026-05-05 03:06 | 50.81961 | 11.22508 | 22945 ft | 483 kts | 34° |
| 2026-05-05 03:06 | 50.84669 | 11.25568 | 22924 ft | 484 kts | 34° |
| 2026-05-05 03:06 | 50.87412 | 11.28674 | 22925 ft | 484 kts | 35° |
| 2026-05-05 03:07 | 50.90143 | 11.31770 | 22943 ft | 484 kts | 35° |
| 2026-05-05 03:07 | 50.92890 | 11.34889 | 22920 ft | 484 kts | 35° |
| 2026-05-05 03:07 | 50.95607 | 11.37978 | 22916 ft | 475 kts | 35° |
| 2026-05-05 03:07 | 50.98271 | 11.41013 | 22508 ft | 470 kts | 35° |
| 2026-05-05 03:08 | 51.00921 | 11.44035 | 21964 ft | 465 kts | 35° |
| 2026-05-05 03:08 | 51.03503 | 11.46984 | 21472 ft | 460 kts | 35° |
| 2026-05-05 03:08 | 51.06090 | 11.49941 | 20953 ft | 455 kts | 35° |
| 2026-05-05 03:08 | 51.08650 | 11.52871 | 20437 ft | 451 kts | 35° |
| 2026-05-05 03:09 | 51.11051 | 11.56000 | 19921 ft | 444 kts | 47° |
| 2026-05-05 03:09 | 51.12766 | 11.60026 | 19432 ft | 433 kts | 65° |
| 2026-05-05 03:09 | 51.14064 | 11.64320 | 18980 ft | 429 kts | 65° |
| 2026-05-05 03:09 | 51.15394 | 11.68557 | 18491 ft | 426 kts | 64° |
| 2026-05-05 03:10 | 51.16745 | 11.72743 | 17981 ft | 424 kts | 63° |
| 2026-05-05 03:10 | 51.18103 | 11.76904 | 17445 ft | 421 kts | 63° |
| 2026-05-05 03:10 | 51.19450 | 11.81024 | 16940 ft | 417 kts | 63° |
| 2026-05-05 03:10 | 51.20782 | 11.85111 | 16466 ft | 414 kts | 63° |
| 2026-05-05 03:11 | 51.22100 | 11.89166 | 15960 ft | 410 kts | 63° |
| 2026-05-05 03:11 | 51.23190 | 11.93300 | 15484 ft | 402 kts | 77° |
| 2026-05-05 03:11 | 51.23485 | 11.97634 | 15036 ft | 389 kts | 90° |
| 2026-05-05 03:11 | 51.23599 | 12.01888 | 14581 ft | 386 kts | 88° |
| 2026-05-05 03:12 | 51.23768 | 12.06168 | 14143 ft | 386 kts | 88° |
| 2026-05-05 03:12 | 51.23969 | 12.10446 | 13682 ft | 388 kts | 87° |
| 2026-05-05 03:12 | 51.24181 | 12.14765 | 13167 ft | 393 kts | 87° |
| 2026-05-05 03:12 | 51.24392 | 12.19114 | 12672 ft | 393 kts | 87° |
| 2026-05-05 03:13 | 51.24599 | 12.23465 | 12185 ft | 390 kts | 87° |
| 2026-05-05 03:13 | 51.24800 | 12.27765 | 11709 ft | 386 kts | 87° |
| 2026-05-05 03:13 | 51.24997 | 12.32013 | 11251 ft | 382 kts | 87° |
| 2026-05-05 03:13 | 51.25197 | 12.36199 | 10955 ft | 370 kts | 85° |
| 2026-05-05 03:14 | 51.25792 | 12.40021 | 10786 ft | 350 kts | 67° |
| 2026-05-05 03:14 | 51.26806 | 12.43480 | 10664 ft | 338 kts | 66° |
| 2026-05-05 03:14 | 51.27765 | 12.46851 | 10521 ft | 328 kts | 66° |
| 2026-05-05 03:14 | 51.28670 | 12.50137 | 10381 ft | 317 kts | 67° |
| 2026-05-05 03:15 | 51.29532 | 12.53320 | 10249 ft | 307 kts | 67° |
| 2026-05-05 03:15 | 51.30365 | 12.56408 | 10138 ft | 297 kts | 68° |
| 2026-05-05 03:15 | 51.31149 | 12.59399 | 9984 ft | 284 kts | 73° |
| 2026-05-05 03:15 | 51.31493 | 12.62428 | 9873 ft | 277 kts | 88° |
| 2026-05-05 03:16 | 51.31597 | 12.65524 | 9573 ft | 287 kts | 89° |
| 2026-05-05 03:16 | 51.31693 | 12.68757 | 9249 ft | 293 kts | 89° |
| 2026-05-05 03:16 | 51.31802 | 12.72017 | 8921 ft | 294 kts | 88° |
| 2026-05-05 03:16 | 51.31925 | 12.75255 | 8588 ft | 289 kts | 88° |
| 2026-05-05 03:17 | 51.32055 | 12.78444 | 8265 ft | 284 kts | 88° |
| 2026-05-05 03:17 | 51.32182 | 12.81570 | 7990 ft | 278 kts | 89° |
| 2026-05-05 03:17 | 51.32251 | 12.84600 | 7931 ft | 271 kts | 90° |
| 2026-05-05 03:17 | 51.32288 | 12.87643 | 7916 ft | 277 kts | 90° |
| 2026-05-05 03:18 | 51.32320 | 12.90759 | 7922 ft | 282 kts | 90° |
| 2026-05-05 03:18 | 51.32352 | 12.93872 | 7905 ft | 283 kts | 90° |
| 2026-05-05 03:18 | 51.32385 | 12.97015 | 7891 ft | 281 kts | 91° |
| 2026-05-05 03:18 | 51.32416 | 13.00137 | 7888 ft | 280 kts | 90° |
| 2026-05-05 03:19 | 51.32606 | 13.06302 | 7865 ft | 278 kts | 75° |
| 2026-05-05 03:19 | 51.33512 | 13.09066 | 7656 ft | 286 kts | 47° |
| 2026-05-05 03:19 | 51.35116 | 13.10927 | 7389 ft | 285 kts | 20° |
| 2026-05-05 03:20 | 51.37025 | 13.11509 | 7121 ft | 276 kts | 360° |
| 2026-05-05 03:20 | 51.38891 | 13.11475 | 6850 ft | 267 kts | 353° |
| 2026-05-05 03:20 | 51.40619 | 13.10722 | 6584 ft | 251 kts | 326° |
| 2026-05-05 03:20 | 51.41812 | 13.08858 | 6365 ft | 234 kts | 301° |
| 2026-05-05 03:21 | 51.42616 | 13.06630 | 6089 ft | 229 kts | 296° |
| 2026-05-05 03:21 | 51.43354 | 13.04372 | 5810 ft | 229 kts | 295° |
| 2026-05-05 03:21 | 51.43838 | 13.02872 | 5632 ft | 229 kts | 295° |
| 2026-05-05 03:21 | 51.44812 | 12.99834 | 5251 ft | 229 kts | 295° |
| 2026-05-05 03:22 | 51.45290 | 12.98330 | 5099 ft | 227 kts | 295° |
| 2026-05-05 03:22 | 51.46140 | 12.95346 | 5009 ft | 220 kts | 279° |
| 2026-05-05 03:22 | 51.46154 | 12.93710 | 5015 ft | 219 kts | 255° |
| 2026-05-05 03:22 | 51.45268 | 12.90786 | 5015 ft | 225 kts | 236° |
| 2026-05-05 03:23 | 51.44453 | 12.88650 | 4989 ft | 223 kts | 246° |
| 2026-05-05 03:23 | 51.44223 | 12.87021 | 5008 ft | 221 kts | 263° |
| 2026-05-05 03:23 | 51.44134 | 12.84552 | 5010 ft | 222 kts | 264° |
| 2026-05-05 03:23 | 51.44023 | 12.82076 | 5011 ft | 223 kts | 264° |
| 2026-05-05 03:24 | 51.43909 | 12.79633 | 5004 ft | 223 kts | 264° |
| 2026-05-05 03:24 | 51.43794 | 12.77153 | 5001 ft | 222 kts | 264° |
| 2026-05-05 03:24 | 51.43680 | 12.74692 | 4995 ft | 221 kts | 264° |
| 2026-05-05 03:24 | 51.43566 | 12.72248 | 5003 ft | 220 kts | 264° |
| 2026-05-05 03:25 | 51.43453 | 12.69814 | 5000 ft | 219 kts | 264° |
| 2026-05-05 03:25 | 51.43340 | 12.67387 | 5004 ft | 217 kts | 264° |
| 2026-05-05 03:25 | 51.43231 | 12.65024 | 4996 ft | 206 kts | 264° |
| 2026-05-05 03:25 | 51.43126 | 12.62759 | 4989 ft | 205 kts | 263° |
| 2026-05-05 03:26 | 51.43019 | 12.60458 | 4712 ft | 207 kts | 264° |
| 2026-05-05 03:26 | 51.42912 | 12.58158 | 4448 ft | 205 kts | 264° |
| 2026-05-05 03:26 | 51.42806 | 12.55892 | 4177 ft | 203 kts | 264° |
| 2026-05-05 03:26 | 51.42704 | 12.53679 | 3894 ft | 195 kts | 264° |
| 2026-05-05 03:27 | 51.42606 | 12.51565 | 3643 ft | 185 kts | 264° |
| 2026-05-05 03:27 | 51.42514 | 12.49585 | 3437 ft | 173 kts | 264° |
| 2026-05-05 03:27 | 51.42428 | 12.47727 | 3202 ft | 161 kts | 264° |
| 2026-05-05 03:27 | 51.42343 | 12.45916 | 3012 ft | 164 kts | 264° |
| 2026-05-05 03:28 | 51.42259 | 12.44095 | 2794 ft | 163 kts | 264° |
| 2026-05-05 03:28 | 51.42176 | 12.42302 | 2560 ft | 162 kts | 265° |
| 2026-05-05 03:28 | 51.42092 | 12.40500 | 2349 ft | 162 kts | 265° |
| 2026-05-05 03:28 | 51.42008 | 12.38696 | 2128 ft | 162 kts | 265° |
| 2026-05-05 03:29 | 51.41924 | 12.36892 | 1908 ft | 162 kts | 265° |
| 2026-05-05 03:29 | 51.41840 | 12.35086 | 1692 ft | 161 kts | 266° |
| 2026-05-05 03:29 | 51.41757 | 12.33291 | 1474 ft | 162 kts | 266° |
| 2026-05-05 03:29 | 51.41674 | 12.31514 | 1270 ft | 163 kts | 266° |
| 2026-05-05 03:30 | 51.41586 | 12.29720 | 1058 ft | 160 kts | 266° |
| 2026-05-05 03:30 | 51.41505 | 12.27964 | 840 ft | 156 kts | 268° |
| 2026-05-05 03:30 | 51.41433 | 12.26244 | 622 ft | 153 kts | 266° |
| 2026-05-05 03:30 | 51.41351 | 12.24636 | 479 ft | 133 kts | 267° |
| 2026-05-05 03:31 | 51.41298 | 12.23370 | 469 ft | 90 kts | 264° |
| 2026-05-05 03:31 | 51.41225 | 12.22698 | 463 ft | 24 kts | 249° |
| 2026-05-05 03:31 | 51.41141 | 12.22516 | 461 ft | 16 kts | 195° |
| 2026-05-05 03:31 | 51.41088 | 12.22597 | 462 ft | 12 kts | 85° |
| 2026-05-05 03:32 | 51.41097 | 12.22761 | 464 ft | 15 kts | 86° |
| 2026-05-05 03:32 | 51.41104 | 12.22931 | 465 ft | 15 kts | 86° |
| 2026-05-05 03:32 | 51.41111 | 12.23100 | 470 ft | 15 kts | 86° |
| 2026-05-05 03:32 | 51.41118 | 12.23270 | 467 ft | 15 kts | 86° |
| 2026-05-05 03:33 | 51.41126 | 12.23441 | 475 ft | 15 kts | 85° |
| 2026-05-05 03:33 | 51.41135 | 12.23612 | 469 ft | 15 kts | 85° |
| 2026-05-05 03:33 | 51.41143 | 12.23782 | 467 ft | 15 kts | 86° |
| 2026-05-05 03:33 | 51.41152 | 12.23965 | 469 ft | 20 kts | 85° |
| 2026-05-05 03:34 | 51.41162 | 12.24178 | 468 ft | 17 kts | 85° |
| 2026-05-05 03:34 | 51.41160 | 12.24336 | 464 ft | 12 kts | 113° |
| 2026-05-05 03:34 | 51.41107 | 12.24433 | 470 ft | 12 kts | 124° |
| 2026-05-05 03:34 | 51.41094 | 12.24556 | 471 ft | 12 kts | 88° |
| 2026-05-05 03:35 | 51.41099 | 12.24684 | 469 ft | 12 kts | 86° |
| 2026-05-05 03:35 | 51.41104 | 12.24812 | 471 ft | 12 kts | 86° |
| 2026-05-05 03:35 | 51.41112 | 12.24960 | 478 ft | 14 kts | 86° |
| 2026-05-05 03:35 | 51.41091 | 12.25114 | 475 ft | 14 kts | 120° |
| 2026-05-05 03:36 | 51.41020 | 12.25123 | 470 ft | 9 kts | 231° |
| 2026-05-05 03:36 | 51.41010 | 12.25044 | 475 ft | 5 kts | 266° |
| 2026-05-05 03:36 | 51.41007 | 12.24991 | 475 ft | 2 kts | 265° |
| 2026-05-05 03:36 | 51.41007 | 12.24971 | 475 ft | 0 kts | 265° |
| 2026-05-05 03:37 | 51.41006 | 12.24964 | 473 ft | 0 kts | 265° |